createdAt,value
2023-01-15T00:02:18.764Z,-1.42
2023-01-15T00:04:45.713Z,-1.43
2023-01-15T00:07:12.570Z,-1.46
2023-01-15T00:09:39.417Z,-1.48
2023-01-15T00:12:06.344Z,-1.50
2023-01-15T00:14:33.238Z,-1.53
2023-01-15T00:17:00.096Z,-1.56
2023-01-15T00:19:26.917Z,-1.60
2023-01-15T00:21:54.244Z,-1.63
2023-01-15T00:24:40.283Z,-1.64
2023-01-15T00:27:29.537Z,-1.66
2023-01-15T00:29:56.454Z,-1.67
2023-01-15T00:32:23.381Z,-1.69
2023-01-15T00:34:50.347Z,-1.69
2023-01-15T00:37:17.242Z,-1.69
2023-01-15T00:39:44.192Z,-1.68
2023-01-15T00:42:14.091Z,-1.68
2023-01-15T00:44:40.949Z,-1.67
2023-01-15T00:47:14.448Z,-1.66
2023-01-15T00:49:42.262Z,-1.65
2023-01-15T00:52:09.434Z,-1.63
2023-01-15T00:54:36.319Z,-1.62
2023-01-15T00:57:03.443Z,-1.64
2023-01-15T00:59:30.355Z,-1.64
2023-01-15T01:01:57.371Z,-1.62
2023-01-15T01:04:25.512Z,-1.59
2023-01-15T01:06:52.950Z,-1.57
2023-01-15T01:09:19.774Z,-1.57
2023-01-15T01:11:46.660Z,-1.56
2023-01-15T01:14:13.596Z,-1.58
2023-01-15T01:16:42.094Z,-1.59
2023-01-15T01:19:11.166Z,-1.60
2023-01-15T01:21:38.707Z,-1.61
2023-01-15T01:24:06.824Z,-1.60
2023-01-15T01:26:34.053Z,-1.61
2023-01-15T01:29:00.937Z,-1.65
2023-01-15T01:31:28.124Z,-1.65
2023-01-15T01:33:56.610Z,-1.64
2023-01-15T01:36:28.614Z,-1.62
2023-01-15T01:38:55.503Z,-1.59
2023-01-15T01:41:22.359Z,-1.58
2023-01-15T01:43:56.691Z,-1.56
2023-01-15T01:46:23.979Z,-1.55
2023-01-15T01:48:52.257Z,-1.55
2023-01-15T01:51:20.313Z,-1.54
2023-01-15T01:53:47.165Z,-1.56
2023-01-15T01:56:17.588Z,-1.57
2023-01-15T01:58:45.877Z,-1.58
2023-01-15T02:01:12.781Z,-1.60
2023-01-15T02:03:40.143Z,-1.61
2023-01-15T02:06:08.990Z,-1.58
2023-01-15T02:08:39.387Z,-1.58
2023-01-15T02:11:07.781Z,-1.60
2023-01-15T02:13:39.464Z,-1.60
2023-01-15T02:16:17.105Z,-1.59
2023-01-15T02:18:59.324Z,-1.58
2023-01-15T02:21:31.668Z,-1.58
2023-01-15T02:24:08.089Z,-1.61
2023-01-15T02:26:55.873Z,-1.60
2023-01-15T02:29:36.169Z,-1.59
2023-01-15T02:32:11.181Z,-1.63
2023-01-15T02:34:52.266Z,-1.66
2023-01-15T02:37:23.000Z,-1.67
2023-01-15T02:39:49.920Z,-1.69
2023-01-15T02:42:17.575Z,-1.67
2023-01-15T02:44:49.243Z,-1.66
2023-01-15T02:47:17.358Z,-1.65
2023-01-15T02:49:44.239Z,-1.65
2023-01-15T02:52:37.993Z,-1.66
2023-01-15T02:55:11.430Z,-1.64
2023-01-15T02:57:41.872Z,-1.62
2023-01-15T03:00:11.337Z,-1.62
2023-01-15T03:02:45.137Z,-1.62
2023-01-15T03:05:17.347Z,-1.63
2023-01-15T03:07:54.008Z,-1.65
2023-01-15T03:10:23.375Z,-1.66
2023-01-15T03:13:05.920Z,-1.65
2023-01-15T03:16:20.828Z,-1.63
2023-01-15T03:18:55.875Z,-1.60
2023-01-15T03:21:44.380Z,-1.59
2023-01-15T03:24:11.733Z,-1.57
2023-01-15T03:26:38.690Z,-1.56
2023-01-15T03:29:06.164Z,-1.55
2023-01-15T03:31:34.112Z,-1.57
2023-01-15T03:34:00.995Z,-1.60
2023-01-15T03:36:28.305Z,-1.61
2023-01-15T03:39:01.103Z,-1.59
2023-01-15T03:41:50.791Z,-1.59
2023-01-15T03:44:27.243Z,-1.60
2023-01-15T03:47:15.681Z,-1.61
2023-01-15T03:50:04.853Z,-1.60
2023-01-15T03:52:49.873Z,-1.61
2023-01-15T03:55:27.107Z,-1.59
2023-01-15T03:58:07.264Z,-1.56
2023-01-15T04:00:40.660Z,-1.51
2023-01-15T04:03:08.629Z,-1.48
2023-01-15T04:05:36.108Z,-1.49
2023-01-15T04:08:04.189Z,-1.49
2023-01-15T04:10:31.724Z,-1.46
2023-01-15T04:12:59.744Z,-1.45
2023-01-15T04:15:26.845Z,-1.45
2023-01-15T04:17:54.196Z,-1.41
2023-01-15T04:20:22.779Z,-1.38
2023-01-15T04:22:49.731Z,-1.34
2023-01-15T04:25:16.873Z,-1.32
2023-01-15T04:27:43.925Z,-1.29
2023-01-15T04:30:11.831Z,-1.26
2023-01-15T04:32:38.947Z,-1.23
2023-01-15T04:35:06.536Z,-1.20
2023-01-15T04:37:33.650Z,-1.19
2023-01-15T04:40:00.462Z,-1.18
2023-01-15T04:42:46.185Z,-1.18
2023-01-15T04:45:13.744Z,-1.19
2023-01-15T04:47:40.885Z,-1.19
2023-01-15T04:50:08.656Z,-1.21
2023-01-15T04:52:35.648Z,-1.24
2023-01-15T04:55:02.667Z,-1.22
2023-01-15T04:57:29.524Z,-1.21
2023-01-15T04:59:56.438Z,-1.24
2023-01-15T05:02:23.369Z,-1.28
2023-01-15T05:04:50.979Z,-1.32
2023-01-15T05:07:19.628Z,-1.32
2023-01-15T05:09:47.702Z,-1.32
2023-01-15T05:12:14.591Z,-1.31
2023-01-15T05:14:42.882Z,-1.30
2023-01-15T05:17:10.001Z,-1.27
2023-01-15T05:19:36.920Z,-1.25
2023-01-15T05:22:03.865Z,-1.19
2023-01-15T05:24:31.548Z,-1.11
2023-01-15T05:26:58.684Z,-1.08
2023-01-15T05:29:25.831Z,-1.05
2023-01-15T05:31:52.697Z,-1.02
2023-01-15T05:34:19.623Z,-1.01
2023-01-15T05:36:46.579Z,-0.99
2023-01-15T05:39:14.033Z,-0.97
2023-01-15T05:41:51.525Z,-0.96
2023-01-15T05:44:29.228Z,-0.98
2023-01-15T05:47:03.225Z,-0.98
2023-01-15T05:49:31.530Z,-0.98
2023-01-15T05:51:59.059Z,-0.95
2023-01-15T05:54:27.784Z,-0.96
2023-01-15T05:56:54.858Z,-0.92
2023-01-15T05:59:24.151Z,-0.90
2023-01-15T06:01:52.800Z,-0.88
2023-01-15T06:04:21.499Z,-0.85
2023-01-15T06:06:49.449Z,-0.85
2023-01-15T06:09:16.338Z,-0.84
2023-01-15T06:11:43.230Z,-0.82
2023-01-15T06:14:11.007Z,-0.82
2023-01-15T06:16:40.238Z,-0.81
2023-01-15T06:19:08.169Z,-0.79
2023-01-15T06:21:35.417Z,-0.81
2023-01-15T06:24:02.684Z,-0.81
2023-01-15T06:26:29.614Z,-0.83
2023-01-15T06:28:56.779Z,-0.81
2023-01-15T06:31:24.019Z,-0.80
2023-01-15T06:33:51.096Z,-0.77
2023-01-15T06:36:21.802Z,-0.72
2023-01-15T06:38:48.975Z,-0.67
2023-01-15T06:41:36.042Z,-0.65
2023-01-15T06:44:22.295Z,-0.60
2023-01-15T06:47:08.616Z,-0.58
2023-01-15T06:49:36.161Z,-0.56
2023-01-15T06:52:03.507Z,-0.53
2023-01-15T06:54:30.429Z,-0.51
2023-01-15T06:56:57.381Z,-0.50
2023-01-15T06:59:24.240Z,-0.49
2023-01-15T07:01:51.204Z,-0.48
2023-01-15T07:04:18.175Z,-0.45
2023-01-15T07:06:45.150Z,-0.44
2023-01-15T07:09:12.301Z,-0.38
2023-01-15T07:11:51.539Z,-0.32
2023-01-15T07:14:19.679Z,-0.30
2023-01-15T07:16:47.586Z,-0.29
2023-01-15T07:19:20.006Z,-0.28
2023-01-15T07:21:47.007Z,-0.25
2023-01-15T07:24:14.158Z,-0.25
2023-01-15T07:26:41.839Z,-0.24
2023-01-15T07:29:09.692Z,-0.22
2023-01-15T07:31:36.796Z,-0.17
2023-01-15T07:34:04.415Z,-0.14
2023-01-15T07:36:31.292Z,-0.11
2023-01-15T07:38:58.131Z,-0.08
2023-01-15T07:41:43.814Z,-0.09
2023-01-15T07:44:30.184Z,-0.13
2023-01-15T07:47:15.824Z,-0.17
2023-01-15T07:49:45.672Z,-0.15
2023-01-15T07:52:19.705Z,-0.14
2023-01-15T07:54:47.368Z,-0.16
2023-01-15T07:57:15.666Z,-0.14
2023-01-15T07:59:42.609Z,-0.11
2023-01-15T08:02:09.573Z,-0.12
2023-01-15T08:04:36.589Z,-0.12
2023-01-15T08:07:03.900Z,-0.08
2023-01-15T08:09:32.904Z,-0.02
2023-01-15T08:12:19.133Z,0.02
2023-01-15T08:15:04.625Z,0.02
2023-01-15T08:17:41.889Z,0.01
2023-01-15T08:20:14.264Z,0.02
2023-01-15T08:22:41.286Z,0.01
2023-01-15T08:25:11.030Z,0.00
2023-01-15T08:27:38.165Z,0.00
2023-01-15T08:30:06.078Z,0.01
2023-01-15T08:32:32.985Z,-0.00
2023-01-15T08:34:59.859Z,0.00
2023-01-15T08:37:26.765Z,-0.02
2023-01-15T08:39:53.707Z,-0.03
2023-01-15T08:42:21.083Z,0.00
2023-01-15T08:44:48.317Z,0.02
2023-01-15T08:47:16.375Z,0.04
2023-01-15T08:49:43.299Z,0.08
2023-01-15T08:52:10.304Z,0.14
2023-01-15T08:54:37.118Z,0.20
2023-01-15T08:57:04.115Z,0.25
2023-01-15T08:59:31.009Z,0.26
2023-01-15T09:01:57.928Z,0.25
2023-01-15T09:04:24.835Z,0.22
2023-01-15T09:06:51.722Z,0.21
2023-01-15T09:09:19.028Z,0.21
2023-01-15T09:11:46.138Z,0.22
2023-01-15T09:14:59.692Z,0.22
2023-01-15T09:17:01.218Z,0.17
2023-01-15T09:19:28.149Z,0.14
2023-01-15T09:21:55.072Z,0.13
2023-01-15T09:24:24.461Z,0.12
2023-01-15T09:26:53.458Z,0.08
2023-01-15T09:29:20.423Z,0.06
2023-01-15T09:31:47.589Z,0.06
2023-01-15T09:34:14.513Z,0.07
2023-01-15T09:36:41.541Z,0.05
2023-01-15T09:39:08.562Z,0.03
2023-01-15T09:42:07.002Z,-0.02
2023-01-15T09:44:55.469Z,-0.04
2023-01-15T09:47:25.541Z,-0.01
2023-01-15T09:50:20.642Z,-0.01
2023-01-15T09:52:50.715Z,0.01
2023-01-15T09:55:20.642Z,0.03
2023-01-15T09:57:50.389Z,0.04
2023-01-15T10:00:25.049Z,0.01
2023-01-15T10:02:54.995Z,-0.01
2023-01-15T10:05:26.410Z,-0.01
2023-01-15T10:08:25.226Z,0.00
2023-01-15T10:10:57.389Z,0.04
2023-01-15T10:13:31.816Z,0.05
2023-01-15T10:15:58.806Z,0.04
2023-01-15T10:18:26.913Z,0.05
2023-01-15T10:20:53.823Z,0.06
2023-01-15T10:23:30.592Z,0.07
2023-01-15T10:26:33.171Z,0.11
2023-01-15T10:29:18.442Z,0.12
2023-01-15T10:31:51.361Z,0.10
2023-01-15T10:34:24.183Z,0.07
2023-01-15T10:36:56.626Z,0.04
2023-01-15T10:39:52.503Z,0.03
2023-01-15T10:42:41.486Z,0.03
2023-01-15T10:45:21.735Z,0.00
2023-01-15T10:47:51.385Z,-0.05
2023-01-15T10:50:21.304Z,-0.08
2023-01-15T10:52:51.166Z,-0.09
2023-01-15T10:55:20.227Z,-0.08
2023-01-15T10:58:08.932Z,-0.05
2023-01-15T11:00:37.781Z,-0.03
2023-01-15T11:03:11.776Z,0.01
2023-01-15T11:05:39.073Z,0.05
2023-01-15T11:08:42.429Z,0.06
2023-01-15T11:10:55.888Z,0.07
2023-01-15T11:13:43.021Z,0.06
2023-01-15T11:16:36.192Z,0.05
2023-01-15T11:19:22.390Z,0.04
2023-01-15T11:21:49.405Z,-0.01
2023-01-15T11:24:16.967Z,-0.04
2023-01-15T11:26:51.877Z,-0.04
2023-01-15T11:29:37.507Z,-0.01
2023-01-15T11:32:04.527Z,0.02
2023-01-15T11:34:31.670Z,-0.00
2023-01-15T11:37:05.278Z,-0.02
2023-01-15T11:39:33.458Z,-0.03
2023-01-15T11:42:23.651Z,-0.02
2023-01-15T11:45:13.391Z,0.02
2023-01-15T11:48:09.729Z,-0.01
2023-01-15T11:50:50.008Z,-0.06
2023-01-15T11:53:19.699Z,-0.08
2023-01-15T11:55:55.399Z,-0.09
2023-01-15T11:58:22.369Z,-0.07
2023-01-15T12:00:50.483Z,-0.06
2023-01-15T12:03:22.237Z,-0.05
2023-01-15T12:05:59.047Z,-0.04
2023-01-15T12:08:39.523Z,-0.04
2023-01-15T12:11:32.549Z,-0.03
2023-01-15T12:14:25.909Z,-0.03
2023-01-15T12:16:59.713Z,-0.03
2023-01-15T12:19:34.214Z,-0.02
2023-01-15T12:22:20.368Z,-0.03
2023-01-15T12:25:10.756Z,-0.03
2023-01-15T12:27:49.553Z,-0.00
2023-01-15T12:30:24.309Z,0.03
2023-01-15T12:33:04.108Z,0.06
2023-01-15T12:35:32.057Z,0.07
2023-01-15T12:38:05.195Z,0.07
2023-01-15T12:40:43.619Z,0.07
2023-01-15T12:43:47.601Z,0.08
2023-01-15T12:46:22.218Z,0.09
2023-01-15T12:48:57.471Z,0.13
2023-01-15T12:51:41.634Z,0.15
2023-01-15T12:54:12.375Z,0.16
2023-01-15T12:56:45.622Z,0.17
2023-01-15T12:59:21.513Z,0.17
2023-01-15T13:02:19.907Z,0.17
2023-01-15T13:05:01.870Z,0.16
2023-01-15T13:07:36.436Z,0.13
2023-01-15T13:10:18.139Z,0.09
2023-01-15T13:12:45.790Z,0.08
2023-01-15T13:15:17.973Z,0.08
2023-01-15T13:17:52.733Z,0.06
2023-01-15T13:20:42.324Z,0.02
2023-01-15T13:23:18.789Z,-0.02
2023-01-15T13:25:58.487Z,-0.06
2023-01-15T13:28:34.628Z,-0.10
2023-01-15T13:31:12.595Z,-0.11
2023-01-15T13:34:21.493Z,-0.12
2023-01-15T13:36:48.404Z,-0.13
2023-01-15T16:16:19.670Z,-0.83
2023-01-15T16:18:50.895Z,-0.82
2023-01-15T16:21:25.875Z,-0.81
2023-01-15T16:24:01.997Z,-0.80
2023-01-15T16:26:43.500Z,-0.77
2023-01-15T16:29:27.838Z,-0.79
2023-01-15T16:31:56.335Z,-0.83
2023-01-15T21:15:27.999Z,-1.04
2023-01-15T21:17:54.862Z,-1.01
2023-01-15T21:20:21.908Z,-0.97
2023-01-15T21:22:48.938Z,-0.92
2023-01-15T21:25:15.881Z,-0.92
2023-01-15T21:27:43.850Z,-0.92
2023-01-15T21:30:11.417Z,-0.89
2023-01-15T21:32:38.255Z,-0.80
2023-01-15T21:35:06.672Z,-0.71
2023-01-15T21:37:34.200Z,-0.67
2023-01-15T21:40:01.046Z,-0.68
2023-01-15T21:42:50.510Z,-0.77
2023-01-15T21:45:18.703Z,-0.85
2023-01-15T21:47:45.535Z,-0.88
2023-01-15T21:50:17.394Z,-0.86
2023-01-15T21:52:44.336Z,-0.80
2023-01-15T21:55:13.142Z,-0.74
2023-01-15T21:57:40.070Z,-0.70
2023-01-15T22:00:07.950Z,-0.76
2023-01-15T22:02:35.410Z,-0.82
2023-01-15T22:05:03.441Z,-0.88
2023-01-15T22:07:30.726Z,-0.95
2023-01-15T22:09:57.771Z,-1.07
2023-01-15T22:12:25.431Z,-1.11
2023-01-15T22:14:54.224Z,-1.15
2023-01-15T22:17:21.680Z,-1.21
2023-01-15T22:19:50.773Z,-1.22
2023-01-15T22:22:17.721Z,-1.26
2023-01-15T22:24:44.773Z,-1.38
2023-01-15T22:27:14.276Z,-1.45
2023-01-15T22:29:41.337Z,-1.49
2023-01-15T22:32:10.525Z,-1.53
2023-01-15T22:34:37.368Z,-1.52
2023-01-15T22:37:04.219Z,-1.44
2023-01-15T22:39:31.358Z,-1.30
2023-01-15T22:42:16.741Z,-1.23
2023-01-15T22:44:44.604Z,-1.13
2023-01-15T22:47:15.540Z,-1.07
2023-01-15T22:49:42.384Z,-1.08
2023-01-15T22:52:09.646Z,-1.11
2023-01-15T22:54:36.584Z,-1.15
2023-01-15T22:57:04.504Z,-1.17
2023-01-15T22:59:31.395Z,-1.25
2023-01-15T23:01:58.240Z,-1.33
2023-01-15T23:04:25.185Z,-1.43
2023-01-15T23:06:52.155Z,-1.45
2023-01-15T23:09:20.701Z,-1.36
2023-01-15T23:11:47.875Z,-1.31
2023-01-15T23:14:15.227Z,-1.36
2023-01-15T23:16:42.576Z,-1.40
2023-01-15T23:19:09.521Z,-1.43
2023-01-15T23:21:36.571Z,-1.40
2023-01-15T23:24:03.917Z,-1.30
2023-01-15T23:26:31.790Z,-1.25
2023-01-15T23:28:59.045Z,-1.25
2023-01-15T23:31:26.198Z,-1.25
2023-01-15T23:33:53.551Z,-1.21
2023-01-15T23:36:20.698Z,-1.14
2023-01-15T23:38:48.158Z,-1.08
2023-01-15T23:41:16.740Z,-1.08
2023-01-15T23:44:02.243Z,-1.08
2023-01-15T23:46:32.274Z,-1.11
2023-01-15T23:49:03.697Z,-1.12
2023-01-15T23:51:30.838Z,-1.14
2023-01-15T23:53:57.886Z,-1.19
2023-01-15T23:56:24.931Z,-1.20
2023-01-15T23:58:51.781Z,-1.17
